TimeEST,TemperatureF,Dew PointF,Humidity,Sea Level PressureIn,VisibilityMPH,Wind Direction,Wind SpeedMPH,Gust SpeedMPH,PrecipitationIn,Events,Conditions,WindDirDegrees,DateUTC
12:54 AM,10.0,7.0,87,30.24,10.0,Calm,Calm,-,N/A,,Clear,0,2013-02-26 05:54:00
1:54 AM,10.0,7.0,87,30.25,10.0,Calm,Calm,-,N/A,,Clear,0,2013-02-26 06:54:00
2:54 AM,7.0,5.0,92,30.25,10.0,Calm,Calm,-,N/A,,Clear,0,2013-02-26 07:54:00
3:54 AM,5.0,1.0,84,30.27,9.0,Calm,Calm,-,N/A,,Clear,0,2013-02-26 08:54:00
4:54 AM,3.9,-0.0,84,30.30,10.0,Calm,Calm,-,N/A,,Clear,0,2013-02-26 09:54:00
5:54 AM,3.0,-2.0,80,30.32,10.0,Calm,Calm,-,N/A,,Clear,0,2013-02-26 10:54:00
6:54 AM,6.1,1.9,83,30.34,10.0,Calm,Calm,-,N/A,,Clear,0,2013-02-26 11:54:00
7:54 AM,8.1,3.0,80,30.35,4.0,Calm,Calm,-,N/A,,Haze,0,2013-02-26 12:54:00
8:54 AM,12.9,8.1,81,30.37,6.0,Calm,Calm,-,N/A,,Haze,0,2013-02-26 13:54:00
9:54 AM,21.0,12.0,68,30.36,10.0,Calm,Calm,-,N/A,,Clear,0,2013-02-26 14:54:00
10:54 AM,23.0,14.0,68,30.37,10.0,SSE,3.5,-,N/A,,Clear,160,2013-02-26 15:54:00
11:54 AM,30.0,17.1,59,30.35,10.0,SSE,3.5,-,N/A,,Clear,150,2013-02-26 16:54:00
12:54 PM,33.1,19.9,59,30.34,10.0,SSE,3.5,-,N/A,,Clear,150,2013-02-26 17:54:00
1:54 PM,35.1,21.0,57,30.31,10.0,SSE,4.6,-,N/A,,Clear,150,2013-02-26 18:54:00
2:54 PM,36.0,21.0,55,30.30,10.0,SSE,3.5,-,N/A,,Clear,160,2013-02-26 19:54:00
3:54 PM,37.0,19.9,50,30.30,10.0,South,3.5,-,N/A,,Clear,170,2013-02-26 20:54:00
4:54 PM,34.0,19.9,56,30.32,10.0,South,3.5,-,N/A,,Clear,170,2013-02-26 21:54:00
5:54 PM,32.0,19.9,61,30.33,10.0,Calm,Calm,-,N/A,,Clear,0,2013-02-26 22:54:00
6:54 PM,28.9,19.0,67,30.33,10.0,Calm,Calm,-,N/A,,Clear,0,2013-02-26 23:54:00
7:54 PM,27.0,19.0,72,30.33,10.0,Calm,Calm,-,N/A,,Clear,0,2013-02-27 00:54:00
8:54 PM,26.1,19.0,75,30.32,10.0,NNE,3.5,-,N/A,,Clear,20,2013-02-27 01:54:00
9:54 PM,21.0,16.0,81,30.33,10.0,Calm,Calm,-,N/A,,Clear,0,2013-02-27 02:54:00
10:54 PM,19.9,16.0,85,30.33,10.0,NNE,3.5,-,N/A,,Clear,20,2013-02-27 03:54:00
11:54 PM,17.1,15.1,92,30.31,10.0,NNE,3.5,-,N/A,,Clear,30,2013-02-27 04:54:00